createdAt,value
2017-06-12T00:00:03.276Z,0
2017-06-12T00:01:02.999Z,0
2017-06-12T00:02:32.568Z,0
2017-06-12T00:03:03.357Z,0
2017-06-12T00:04:03.086Z,0
2017-06-12T00:05:18.031Z,0
2017-06-12T00:06:03.441Z,0
2017-06-12T00:07:18.084Z,0
2017-06-12T00:08:03.491Z,0
2017-06-12T00:09:03.520Z,0
2017-06-12T00:10:03.545Z,0
2017-06-12T00:11:03.575Z,0
2017-06-12T00:13:03.630Z,0
2017-06-12T00:14:03.657Z,0
2017-06-12T00:15:03.678Z,0
2017-06-12T00:16:18.326Z,0
2017-06-12T00:17:03.732Z,0
2017-06-12T00:18:03.459Z,0
2017-06-12T00:19:03.787Z,0
2017-06-12T00:20:03.814Z,0
2017-06-12T00:21:18.459Z,0
2017-06-12T00:23:03.891Z,0
2017-06-12T00:25:03.950Z,0
2017-06-12T00:26:03.670Z,0
2017-06-12T00:28:03.729Z,0
2017-06-12T00:29:18.676Z,0
2017-06-12T00:30:04.086Z,0
2017-06-12T00:31:03.203Z,0
2017-06-12T00:32:04.140Z,0
2017-06-12T00:33:03.861Z,0
2017-06-12T00:34:03.889Z,0
2017-06-12T00:35:03.608Z,0
2017-06-12T00:36:03.637Z,0
2017-06-12T00:37:18.887Z,0
2017-06-12T00:38:03.687Z,0
2017-06-12T00:39:03.717Z,0
2017-06-12T00:40:18.967Z,0
2017-06-12T00:41:04.376Z,0
2017-06-12T00:42:03.797Z,0
2017-06-12T00:43:03.826Z,0
2017-06-12T00:44:04.159Z,0
2017-06-12T00:45:04.484Z,0
2017-06-12T00:46:04.212Z,0
2017-06-12T00:47:04.540Z,0
2017-06-12T00:48:18.878Z,0
2017-06-12T00:49:19.211Z,0
2017-06-12T00:50:04.621Z,0
2017-06-12T00:51:04.046Z,0
2017-06-12T00:52:18.684Z,0
2017-06-12T00:53:19.315Z,0
2017-06-12T00:54:19.344Z,0
2017-06-12T00:55:04.145Z,0
2017-06-12T00:56:04.480Z,0
2017-06-12T00:57:04.199Z,0
2017-06-12T00:58:04.829Z,0
2017-06-12T00:59:04.859Z,0
2017-06-12T01:00:04.586Z,0
2017-06-12T01:01:04.912Z,0
2017-06-12T01:02:04.938Z,0
2017-06-12T01:03:04.965Z,0
2017-06-12T01:04:04.384Z,0
2017-06-12T01:05:33.952Z,0
2017-06-12T01:06:19.665Z,0
2017-06-12T01:07:05.075Z,0
2017-06-12T01:08:34.334Z,0
2017-06-12T01:09:05.128Z,0
2017-06-12T01:10:04.848Z,0
2017-06-12T01:11:05.178Z,0
2017-06-12T01:12:05.206Z,0
2017-06-12T01:13:05.232Z,0
2017-06-12T01:15:05.284Z,0
2017-06-12T01:16:05.009Z,0
2017-06-12T01:17:05.406Z,0
2017-06-12T01:18:05.397Z,0
2017-06-12T01:19:34.631Z,0
2017-06-12T01:20:05.417Z,0
2017-06-12T01:21:05.453Z,0
2017-06-12T01:22:34.707Z,0
2017-06-12T01:23:05.498Z,0
2017-06-12T01:24:05.219Z,0
2017-06-12T01:25:05.251Z,0
2017-06-12T01:26:20.196Z,0
2017-06-12T01:27:05.607Z,0
2017-06-12T01:28:05.631Z,0
2017-06-12T01:29:05.655Z,0
2017-06-12T01:31:05.713Z,0
2017-06-12T01:32:05.735Z,0
2017-06-12T01:33:05.463Z,0
2017-06-12T01:34:20.407Z,0
2017-06-12T01:35:20.435Z,0
2017-06-12T01:36:05.842Z,0
2017-06-12T01:37:05.567Z,0
2017-06-12T01:38:05.644Z,0
2017-06-12T01:39:05.619Z,0
2017-06-12T01:40:20.567Z,0
2017-06-12T01:41:05.672Z,0
2017-06-12T01:43:20.647Z,0
2017-06-12T01:44:05.752Z,0
2017-06-12T01:45:06.089Z,0
2017-06-12T01:48:05.861Z,0
2017-06-12T01:49:06.193Z,0
2017-06-12T01:50:20.835Z,0
2017-06-12T01:51:06.243Z,0
2017-06-12T01:52:05.969Z,0
2017-06-12T01:53:20.934Z,0
2017-06-12T01:54:20.334Z,0
2017-06-12T01:55:06.047Z,0
2017-06-12T01:56:20.997Z,0
2017-06-12T01:57:05.797Z,0
2017-06-12T01:58:06.127Z,0
2017-06-12T01:59:06.150Z,0
2017-06-12T02:00:06.185Z,0
2017-06-12T02:01:06.205Z,0
2017-06-12T02:02:06.537Z,0
2017-06-12T02:03:06.562Z,0
2017-06-12T02:04:06.587Z,0
2017-06-12T02:05:20.934Z,0
2017-06-12T02:07:21.283Z,0
2017-06-12T02:08:06.706Z,0
2017-06-12T02:09:21.337Z,0
2017-06-12T02:10:21.368Z,0
2017-06-12T02:11:06.772Z,0
2017-06-12T02:13:06.824Z,0
2017-06-12T02:14:06.867Z,0
2017-06-12T02:16:06.914Z,0
2017-06-12T02:17:06.932Z,0
2017-06-12T02:18:06.957Z,0
2017-06-12T02:19:06.987Z,0
2017-06-12T02:20:07.012Z,0
2017-06-12T02:21:07.039Z,0
2017-06-12T02:22:21.684Z,0
2017-06-12T02:23:07.090Z,0
2017-06-12T02:24:21.737Z,0
2017-06-12T02:25:07.145Z,0
2017-06-12T02:26:07.175Z,0
2017-06-12T02:27:07.197Z,0
2017-06-12T02:28:21.839Z,0
2017-06-12T02:29:07.249Z,0
2017-06-12T02:30:06.975Z,0
2017-06-12T02:31:07.305Z,0
2017-06-12T02:32:07.329Z,0
2017-06-12T02:34:07.382Z,0
2017-06-12T02:35:07.108Z,0
2017-06-12T02:36:07.131Z,0
2017-06-12T02:37:07.160Z,0
2017-06-12T02:38:22.107Z,0
2017-06-12T02:39:07.209Z,0
2017-06-12T02:40:22.164Z,0
2017-06-12T02:41:07.566Z,0
2017-06-12T02:42:06.993Z,0
2017-06-12T02:43:22.240Z,0
2017-06-12T02:44:07.342Z,0
2017-06-12T02:45:22.356Z,0
2017-06-12T02:46:07.097Z,0
2017-06-12T02:47:07.422Z,0
2017-06-12T02:48:07.450Z,0
2017-06-12T02:51:07.531Z,0
2017-06-12T02:52:22.174Z,0
2017-06-12T02:53:22.200Z,0
2017-06-12T02:54:22.232Z,0
2017-06-12T02:55:07.635Z,0
2017-06-12T02:56:07.058Z,0
2017-06-12T02:57:22.609Z,0
2017-06-12T02:58:07.716Z,0
2017-06-12T02:59:08.044Z,0
2017-06-12T03:00:22.689Z,0
2017-06-12T03:01:08.097Z,0
2017-06-12T03:02:08.124Z,0
2017-06-12T03:03:08.149Z,0
2017-06-12T03:04:08.177Z,0
2017-06-12T03:05:08.200Z,0
2017-06-12T03:06:08.232Z,0
2017-06-12T03:08:08.285Z,0
2017-06-12T03:09:22.926Z,0
2017-06-12T03:10:08.030Z,0
2017-06-12T03:11:08.361Z,0
2017-06-12T03:12:37.624Z,0
2017-06-12T03:13:08.414Z,0
2017-06-12T03:14:08.444Z,0
2017-06-12T03:15:23.084Z,0
2017-06-12T03:16:08.502Z,0
2017-06-12T03:17:08.521Z,0
2017-06-12T03:18:08.548Z,0
2017-06-12T03:19:08.271Z,5
2017-06-12T03:20:08.606Z,5
2017-06-12T03:21:08.329Z,5
2017-06-12T03:22:23.275Z,5
2017-06-12T03:23:08.681Z,10
2017-06-12T03:24:08.704Z,10
2017-06-12T03:25:08.747Z,15
2017-06-12T03:26:23.376Z,15
2017-06-12T03:27:08.784Z,15
2017-06-12T03:28:38.047Z,15
2017-06-12T03:29:23.453Z,15
2017-06-12T03:30:08.565Z,15
2017-06-12T03:31:23.509Z,20
2017-06-12T03:32:08.917Z,20
2017-06-12T03:33:08.943Z,25
2017-06-12T03:34:08.667Z,30
2017-06-12T03:35:09.010Z,35
2017-06-12T03:36:09.037Z,40
2017-06-12T03:37:09.050Z,40
2017-06-12T03:38:09.091Z,40
2017-06-12T03:39:09.121Z,45
2017-06-12T03:40:09.146Z,45
2017-06-12T03:41:23.780Z,50
2017-06-12T03:42:08.573Z,50
2017-06-12T03:43:08.904Z,60
2017-06-12T03:44:08.930Z,65
2017-06-12T03:45:09.261Z,70
2017-06-12T03:46:08.997Z,70
2017-06-12T03:47:23.932Z,70
2017-06-12T03:48:09.053Z,75
2017-06-12T03:49:09.079Z,80
2017-06-12T03:50:08.785Z,85
2017-06-12T03:51:09.418Z,85
2017-06-12T03:52:09.461Z,90
2017-06-12T03:53:09.168Z,90
2017-06-12T03:54:09.500Z,95
2017-06-12T03:55:09.578Z,100
2017-06-12T03:56:09.552Z,110
2017-06-12T03:57:09.295Z,105
2017-06-12T03:58:24.222Z,100
2017-06-12T03:59:09.041Z,95
2017-06-12T04:00:09.358Z,85
2017-06-12T04:01:09.684Z,80
2017-06-12T04:02:24.330Z,80
2017-06-12T04:03:24.054Z,80
2017-06-12T04:04:24.384Z,75
2017-06-12T04:05:24.106Z,80
2017-06-12T04:06:09.514Z,95
2017-06-12T04:07:24.471Z,80
2017-06-12T04:08:09.872Z,95
2017-06-12T04:09:09.899Z,70
2017-06-12T04:10:09.928Z,65
2017-06-12T04:11:09.983Z,75
2017-06-12T04:12:09.978Z,80
2017-06-12T04:13:39.247Z,75
2017-06-12T04:14:10.033Z,75
2017-06-12T04:15:24.375Z,75
2017-06-12T04:16:09.785Z,75
2017-06-12T04:17:10.115Z,360
2017-06-12T04:18:24.759Z,70
2017-06-12T04:19:24.788Z,65
2017-06-12T04:20:09.896Z,65
2017-06-12T04:21:10.226Z,60
2017-06-12T04:22:10.248Z,60
2017-06-12T04:23:10.278Z,60
2017-06-12T04:24:10.301Z,60
2017-06-12T04:25:10.334Z,55
2017-06-12T04:27:10.402Z,50
2017-06-12T04:28:24.422Z,45
2017-06-12T04:29:10.444Z,45
2017-06-12T04:30:10.162Z,40
2017-06-12T04:31:10.213Z,35
2017-06-12T04:32:10.526Z,30
2017-06-12T04:33:10.547Z,30
2017-06-12T04:34:10.575Z,25
2017-06-12T04:35:10.295Z,25
2017-06-12T04:36:10.324Z,25
2017-06-12T04:37:10.355Z,25
2017-06-12T04:38:10.679Z,25
2017-06-12T04:39:10.405Z,25
2017-06-12T04:40:24.749Z,25
2017-06-12T04:41:10.762Z,25
2017-06-12T04:42:10.186Z,25
2017-06-12T04:43:10.817Z,30
2017-06-12T04:44:10.542Z,30
2017-06-12T04:45:10.870Z,30
2017-06-12T04:46:25.516Z,30
2017-06-12T04:47:10.924Z,30
2017-06-12T04:48:25.570Z,35
2017-06-12T04:49:10.674Z,35
2017-06-12T04:50:25.620Z,35
2017-06-12T04:51:10.725Z,30
2017-06-12T04:52:11.061Z,35
2017-06-12T04:53:11.085Z,40
2017-06-12T04:54:11.110Z,45
2017-06-12T04:55:11.139Z,45
2017-06-12T04:56:11.198Z,45
2017-06-12T04:57:11.194Z,50
2017-06-12T04:58:10.915Z,50
2017-06-12T04:59:11.244Z,55
2017-06-12T05:00:10.969Z,60
2017-06-12T05:01:11.000Z,70
2017-06-12T05:02:40.562Z,75
2017-06-12T05:03:25.970Z,75
2017-06-12T05:04:11.380Z,75
2017-06-12T05:05:11.422Z,80
2017-06-12T05:06:26.052Z,70
2017-06-12T05:07:11.158Z,75
2017-06-12T05:08:11.503Z,225
2017-06-12T05:09:26.129Z,50
2017-06-12T05:10:11.554Z,50
2017-06-12T05:11:11.565Z,50
2017-06-12T05:12:11.614Z,50
2017-06-12T05:13:11.619Z,45
2017-06-12T05:14:11.042Z,45
2017-06-12T05:15:11.687Z,45
2017-06-12T05:16:11.701Z,45
2017-06-12T05:17:11.729Z,50
2017-06-12T05:18:11.754Z,50
2017-06-12T05:19:11.788Z,55
2017-06-12T05:20:11.810Z,55
2017-06-12T05:21:11.884Z,65
2017-06-12T05:22:26.479Z,80
2017-06-12T05:23:11.887Z,85
2017-06-12T05:24:11.309Z,90
2017-06-12T05:25:26.560Z,95
2017-06-12T05:26:11.971Z,105
2017-06-12T05:27:11.691Z,125
2017-06-12T05:28:12.323Z,145
2017-06-12T05:29:11.749Z,170
2017-06-12T05:30:11.474Z,190
2017-06-12T05:31:12.102Z,295
2017-06-12T05:32:41.115Z,425
2017-06-12T05:33:26.775Z,250
2017-06-12T05:34:26.804Z,105
2017-06-12T05:35:12.213Z,95
2017-06-12T05:36:12.245Z,90
2017-06-12T05:37:41.503Z,115
2017-06-12T05:38:26.914Z,140
2017-06-12T05:39:12.324Z,180
2017-06-12T05:40:12.357Z,195
2017-06-12T05:41:12.079Z,175
2017-06-12T05:42:12.403Z,190
2017-06-12T05:43:12.432Z,190
2017-06-12T05:44:12.460Z,205
2017-06-12T05:45:12.186Z,185
2017-06-12T05:46:12.524Z,130
2017-06-12T05:47:12.552Z,115
2017-06-12T05:49:27.217Z,95
2017-06-12T05:50:12.326Z,85
2017-06-12T05:51:12.660Z,85
2017-06-12T05:52:12.380Z,80
2017-06-12T05:53:27.331Z,90
2017-06-12T05:54:12.738Z,105
2017-06-12T05:55:12.466Z,125
2017-06-12T05:56:12.493Z,140
2017-06-12T05:57:12.820Z,130
2017-06-12T05:58:12.851Z,140
2017-06-12T05:59:12.876Z,165
2017-06-12T06:00:12.650Z,180
2017-06-12T06:01:12.679Z,235
2017-06-12T06:02:27.580Z,175
2017-06-12T06:03:13.037Z,155
2017-06-12T06:04:27.634Z,130
2017-06-12T06:05:13.048Z,115
2017-06-12T06:06:13.069Z,105
2017-06-12T06:07:12.799Z,95
2017-06-12T06:08:13.128Z,85
2017-06-12T06:09:12.847Z,75
2017-06-12T06:10:13.188Z,75
2017-06-12T06:11:12.905Z,80
2017-06-12T06:12:12.932Z,80
2017-06-12T06:13:13.313Z,85
2017-06-12T06:14:13.289Z,85
2017-06-12T06:15:13.315Z,85
2017-06-12T06:16:13.347Z,90
2017-06-12T06:17:13.373Z,105
2017-06-12T06:18:13.403Z,155
2017-06-12T06:19:13.432Z,225
2017-06-12T06:20:13.456Z,225
2017-06-12T06:21:13.487Z,235
2017-06-12T06:22:28.133Z,375
2017-06-12T06:23:13.543Z,365
2017-06-12T06:24:13.562Z,270
2017-06-12T06:25:28.217Z,295
2017-06-12T06:26:28.240Z,860
2017-06-12T06:27:13.346Z,405
2017-06-12T06:28:28.294Z,180
2017-06-12T06:29:13.706Z,150
2017-06-12T06:30:13.734Z,135
2017-06-12T06:31:13.459Z,120
2017-06-12T06:32:13.810Z,115
2017-06-12T06:34:28.163Z,120
2017-06-12T06:35:13.880Z,135
2017-06-12T06:36:13.905Z,145
2017-06-12T06:37:28.557Z,165
2017-06-12T06:38:13.960Z,180
2017-06-12T06:39:43.225Z,245
2017-06-12T06:40:14.066Z,260
2017-06-12T06:41:28.665Z,325
2017-06-12T06:42:14.071Z,360
2017-06-12T06:43:14.100Z,245
2017-06-12T06:44:14.128Z,210
2017-06-12T06:45:14.160Z,220
2017-06-12T06:46:14.184Z,185
2017-06-12T06:47:14.217Z,180
2017-06-12T06:49:14.272Z,195
2017-06-12T06:50:14.298Z,220
2017-06-12T06:51:28.644Z,310
2017-06-12T06:52:14.053Z,235
2017-06-12T06:53:14.384Z,320
2017-06-12T06:54:29.031Z,340
2017-06-12T06:55:14.443Z,745
2017-06-12T06:56:14.470Z,415
2017-06-12T06:57:29.118Z,925
2017-06-12T06:58:14.526Z,1015
2017-06-12T06:59:29.176Z,945
2017-06-12T07:00:14.592Z,460
2017-06-12T07:01:14.316Z,545
2017-06-12T07:02:14.037Z,1085
2017-06-12T07:03:14.678Z,320
2017-06-12T07:04:14.707Z,295
2017-06-12T07:05:14.435Z,475
2017-06-12T07:06:29.388Z,475
2017-06-12T07:07:29.416Z,910
2017-06-12T07:08:44.071Z,380
2017-06-12T07:09:29.478Z,865
2017-06-12T07:11:14.623Z,900
2017-06-12T07:12:44.192Z,465
2017-06-12T07:13:29.610Z,445
2017-06-12T07:14:14.713Z,340
2017-06-12T07:15:14.765Z,725
2017-06-12T07:16:29.698Z,360
2017-06-12T07:17:29.431Z,760
2017-06-12T07:18:15.149Z,690
2017-06-12T07:19:14.872Z,760
2017-06-12T07:20:29.831Z,765
2017-06-12T07:21:14.939Z,800
2017-06-12T07:22:29.592Z,730
2017-06-12T07:23:29.927Z,920
2017-06-12T07:24:15.340Z,900
2017-06-12T07:25:15.375Z,875
2017-06-12T07:26:44.646Z,790
2017-06-12T07:27:15.448Z,790
2017-06-12T07:28:30.093Z,880
2017-06-12T07:29:15.208Z,1215
2017-06-12T07:30:15.546Z,1420
2017-06-12T07:31:44.764Z,1070
2017-06-12T07:32:15.613Z,1015
2017-06-12T07:33:15.344Z,1015
2017-06-12T07:34:15.680Z,990
2017-06-12T07:35:15.413Z,885
2017-06-12T07:36:15.450Z,1120
2017-06-12T07:37:15.481Z,1090
2017-06-12T07:38:15.537Z,390
2017-06-12T07:39:44.795Z,335
2017-06-12T07:40:15.890Z,855
2017-06-12T07:41:30.547Z,275
2017-06-12T07:42:15.962Z,245
2017-06-12T07:43:15.691Z,255
2017-06-12T07:44:15.425Z,230
2017-06-12T07:45:16.067Z,345
2017-06-12T07:46:30.719Z,920
2017-06-12T07:47:16.161Z,925
2017-06-12T07:48:16.192Z,905
2017-06-12T07:50:15.932Z,875
2017-06-12T07:51:16.272Z,845
2017-06-12T07:53:16.341Z,825
2017-06-12T07:54:30.085Z,820
2017-06-12T07:55:16.412Z,755
2017-06-12T07:56:16.495Z,425
2017-06-12T07:57:16.483Z,815
2017-06-12T07:58:16.513Z,860
2017-06-12T07:59:31.169Z,545
2017-06-12T08:00:31.210Z,290
2017-06-12T08:01:31.241Z,715
2017-06-12T08:03:16.383Z,255
2017-06-12T08:04:31.069Z,245
2017-06-12T08:05:16.958Z,780
2017-06-12T08:06:16.893Z,620
2017-06-12T08:07:16.221Z,750
2017-06-12T08:08:16.608Z,235
2017-06-12T08:09:16.594Z,210
2017-06-12T08:10:16.629Z,215
2017-06-12T08:11:16.662Z,250
2017-06-12T08:12:31.314Z,270
2017-06-12T08:13:16.931Z,680
2017-06-12T08:14:31.686Z,265
2017-06-12T08:15:17.100Z,455
2017-06-12T08:16:31.754Z,230
2017-06-12T08:17:17.170Z,610
2017-06-12T08:18:17.251Z,620
2017-06-12T08:19:17.233Z,535
2017-06-12T08:20:16.966Z,355
2017-06-12T08:21:16.697Z,285
2017-06-12T08:22:16.729Z,280
2017-06-12T08:23:17.371Z,295
2017-06-12T08:24:16.800Z,540
2017-06-12T08:25:17.133Z,465
2017-06-12T08:26:17.473Z,475
2017-06-12T08:27:17.515Z,575
2017-06-12T08:28:17.539Z,565
2017-06-12T08:29:17.573Z,545
2017-06-12T08:30:16.997Z,530
2017-06-12T08:31:17.652Z,520
2017-06-12T08:32:32.290Z,530
2017-06-12T08:33:17.708Z,485
2017-06-12T08:34:17.739Z,225
2017-06-12T08:35:17.853Z,245
2017-06-12T08:36:17.808Z,265
2017-06-12T08:37:17.538Z,235
2017-06-12T08:38:17.372Z,245
2017-06-12T08:39:17.607Z,260
2017-06-12T08:40:32.566Z,390
2017-06-12T08:41:17.673Z,435
2017-06-12T08:42:32.325Z,525
2017-06-12T08:43:17.740Z,520
2017-06-12T08:44:32.695Z,500
2017-06-12T08:45:47.349Z,480
2017-06-12T08:46:18.149Z,475
2017-06-12T08:47:18.176Z,475
2017-06-12T08:48:32.528Z,465
2017-06-12T08:49:18.345Z,480
2017-06-12T08:51:18.360Z,365
2017-06-12T08:52:18.041Z,255
2017-06-12T08:53:18.078Z,505
2017-06-12T08:56:18.484Z,250
2017-06-12T08:57:33.135Z,505
2017-06-12T08:58:18.247Z,495
2017-06-12T08:59:32.898Z,290
2017-06-12T09:00:18.007Z,365
2017-06-12T09:01:18.096Z,490
2017-06-12T09:02:18.381Z,355
2017-06-12T09:03:33.343Z,225
2017-06-12T09:04:18.148Z,465
2017-06-12T09:05:18.481Z,455
2017-06-12T09:06:18.517Z,440
2017-06-12T09:07:18.858Z,430
2017-06-12T09:08:17.985Z,405
2017-06-12T09:09:18.314Z,385
2017-06-12T09:10:33.580Z,375
2017-06-12T09:12:18.417Z,385
2017-06-12T09:13:33.684Z,385
2017-06-12T09:14:33.415Z,320
2017-06-12T09:15:18.826Z,210
2017-06-12T09:16:19.162Z,385
2017-06-12T09:17:33.822Z,195
2017-06-12T09:18:19.229Z,180
2017-06-12T09:19:19.268Z,360
2017-06-12T09:20:19.300Z,360
2017-06-12T09:21:19.334Z,360
2017-06-12T09:22:19.417Z,360
2017-06-12T09:23:19.402Z,370
2017-06-12T09:24:19.435Z,365
2017-06-12T09:26:33.822Z,360
2017-06-12T09:27:19.234Z,350
2017-06-12T09:28:33.897Z,340
2017-06-12T09:29:19.605Z,340
2017-06-12T09:30:19.648Z,340
2017-06-12T09:31:34.293Z,335
2017-06-12T09:32:34.026Z,335
2017-06-12T09:33:34.363Z,345
2017-06-12T09:34:19.475Z,350
2017-06-12T09:35:34.429Z,355
2017-06-12T09:36:19.541Z,285
2017-06-12T09:37:19.579Z,340
2017-06-12T09:38:19.611Z,205
2017-06-12T09:39:19.647Z,200
2017-06-12T09:40:19.677Z,185
2017-06-12T09:41:20.020Z,190
2017-06-12T09:43:19.477Z,340
2017-06-12T09:44:20.118Z,350
2017-06-12T09:45:19.845Z,195
2017-06-12T09:46:20.185Z,190
2017-06-12T09:47:49.460Z,330
2017-06-12T09:48:20.254Z,175
2017-06-12T09:49:19.678Z,170
2017-06-12T09:50:20.016Z,170
2017-06-12T09:51:35.272Z,240
2017-06-12T09:52:20.384Z,175
2017-06-12T09:53:20.421Z,185
2017-06-12T09:54:20.450Z,335
2017-06-12T09:55:20.181Z,330
2017-06-12T09:56:20.522Z,175
2017-06-12T09:57:20.563Z,320
2017-06-12T09:58:20.595Z,190
2017-06-12T09:59:20.616Z,315
2017-06-12T10:00:34.966Z,185
2017-06-12T10:01:20.427Z,185
2017-06-12T10:02:20.411Z,180
2017-06-12T10:03:20.765Z,255
2017-06-12T10:04:20.170Z,180
2017-06-12T10:05:20.507Z,175
2017-06-12T10:06:20.842Z,175
2017-06-12T10:07:35.501Z,180
2017-06-12T10:08:20.607Z,185
2017-06-12T10:09:35.253Z,180
2017-06-12T10:10:20.668Z,170
2017-06-12T10:12:21.036Z,155
2017-06-12T10:13:21.070Z,155
2017-06-12T10:14:20.794Z,155
2017-06-12T10:15:20.823Z,150
2017-06-12T10:16:20.858Z,150
2017-06-12T10:17:20.894Z,155
2017-06-12T10:18:20.919Z,160
2017-06-12T10:19:35.874Z,165
2017-06-12T10:20:50.219Z,170
2017-06-12T10:21:21.321Z,170
2017-06-12T10:22:35.965Z,215
2017-06-12T10:23:35.997Z,170
2017-06-12T10:24:21.106Z,165
2017-06-12T10:25:21.138Z,160
2017-06-12T10:26:21.471Z,235
2017-06-12T10:27:21.498Z,285
2017-06-12T10:28:21.534Z,280
2017-06-12T10:29:21.561Z,170
2017-06-12T10:30:21.590Z,155
2017-06-12T10:31:36.244Z,155
2017-06-12T10:32:21.656Z,170
2017-06-12T10:33:21.686Z,160
2017-06-12T10:34:36.333Z,165
2017-06-12T10:35:21.898Z,285
2017-06-12T10:36:36.701Z,175
2017-06-12T10:37:21.209Z,285
2017-06-12T10:38:36.154Z,280
2017-06-12T10:39:21.867Z,280
2017-06-12T10:40:36.543Z,275
2017-06-12T10:41:21.929Z,270
2017-06-12T10:42:21.656Z,270
2017-06-12T10:43:21.988Z,265
2017-06-12T10:44:22.021Z,265
2017-06-12T10:45:22.057Z,270
2017-06-12T10:46:21.780Z,280
2017-06-12T10:47:21.809Z,170
2017-06-12T10:48:22.147Z,165
2017-06-12T10:49:36.489Z,170
2017-06-12T10:50:22.207Z,175
2017-06-12T10:51:22.235Z,185
2017-06-12T10:52:51.504Z,190
2017-06-12T10:53:21.994Z,190
2017-06-12T10:54:22.325Z,195
2017-06-12T10:55:22.361Z,205
2017-06-12T10:56:22.387Z,290
2017-06-12T10:57:22.419Z,210
2017-06-12T10:58:37.066Z,260
2017-06-12T10:59:21.572Z,320
2017-06-12T11:00:22.535Z,310
2017-06-12T11:01:22.545Z,305
2017-06-12T11:03:37.226Z,290
2017-06-12T11:04:22.635Z,190
2017-06-12T11:05:37.282Z,235
2017-06-12T11:06:22.693Z,210
2017-06-12T11:07:22.723Z,225
2017-06-12T11:08:22.753Z,305
2017-06-12T11:09:22.480Z,340
2017-06-12T11:10:37.433Z,350
2017-06-12T11:11:22.843Z,240
2017-06-12T11:12:22.572Z,240
2017-06-12T11:13:22.603Z,235
2017-06-12T11:15:22.664Z,245
2017-06-12T11:16:22.998Z,240
2017-06-12T11:17:23.029Z,240
2017-06-12T11:18:37.376Z,240
2017-06-12T11:19:23.088Z,240
2017-06-12T11:20:22.832Z,245
2017-06-12T11:21:37.463Z,235
2017-06-12T11:22:23.180Z,240
2017-06-12T11:23:22.908Z,240
2017-06-12T11:24:23.244Z,325
2017-06-12T11:25:23.269Z,325
2017-06-12T11:26:37.616Z,315
2017-06-12T11:27:23.331Z,310
2017-06-12T11:28:22.753Z,295
2017-06-12T11:29:23.088Z,290
2017-06-12T11:30:23.120Z,285
2017-06-12T11:31:38.068Z,280
2017-06-12T11:34:52.786Z,270
2017-06-12T11:35:23.269Z,250
2017-06-12T11:36:23.299Z,190
2017-06-12T11:37:23.329Z,195
2017-06-12T11:38:23.666Z,215
2017-06-12T11:39:38.314Z,220
2017-06-12T11:40:23.727Z,240
2017-06-12T11:41:23.451Z,220
2017-06-12T11:42:38.403Z,215
2017-06-12T11:43:38.131Z,220
2017-06-12T11:44:23.544Z,265
2017-06-12T11:45:23.572Z,275
2017-06-12T11:46:23.609Z,265
2017-06-12T11:47:23.633Z,235
2017-06-12T11:49:38.315Z,245
2017-06-12T11:50:23.728Z,235
2017-06-12T11:51:24.059Z,220
2017-06-12T11:52:24.094Z,205
2017-06-12T11:53:24.119Z,200
2017-06-12T11:54:24.151Z,195
2017-06-12T11:55:24.180Z,240
2017-06-12T11:56:23.908Z,275
2017-06-12T11:57:24.271Z,270
2017-06-12T11:58:38.888Z,280
2017-06-12T11:59:24.001Z,250
2017-06-12T12:00:38.951Z,205
2017-06-12T12:01:24.364Z,200
2017-06-12T12:02:24.392Z,195
2017-06-12T12:03:24.424Z,195
2017-06-12T12:05:24.485Z,200
2017-06-12T12:07:39.164Z,215
2017-06-12T12:08:39.244Z,210
2017-06-12T12:09:39.231Z,210
2017-06-12T12:10:24.333Z,210
2017-06-12T12:11:39.285Z,210
2017-06-12T12:12:24.749Z,205
2017-06-12T12:13:39.043Z,200
2017-06-12T12:14:23.850Z,210
2017-06-12T12:15:24.485Z,265
2017-06-12T12:16:39.435Z,215
2017-06-12T12:17:23.635Z,220
2017-06-12T12:18:24.581Z,260
2017-06-12T12:20:24.637Z,230
2017-06-12T12:21:24.970Z,235
2017-06-12T12:22:25.001Z,285
2017-06-12T12:23:39.346Z,300
2017-06-12T12:24:39.375Z,235
2017-06-12T12:25:54.024Z,230
2017-06-12T12:26:25.121Z,220
2017-06-12T12:27:39.773Z,215
2017-06-12T12:28:24.878Z,220
2017-06-12T12:29:25.209Z,220
2017-06-12T12:30:25.242Z,215
2017-06-12T12:31:25.269Z,210
2017-06-12T12:32:25.308Z,205
2017-06-12T12:33:25.330Z,200
2017-06-12T12:34:25.392Z,190
2017-06-12T12:35:25.398Z,190
2017-06-12T12:36:25.421Z,190
2017-06-12T12:37:25.147Z,190
2017-06-12T12:38:25.180Z,200
2017-06-12T12:39:40.131Z,205
2017-06-12T12:40:54.781Z,205
2017-06-12T12:41:40.188Z,210
2017-06-12T12:42:25.300Z,215
2017-06-12T12:43:25.634Z,220
2017-06-12T12:44:40.579Z,220
2017-06-12T12:45:40.309Z,285
2017-06-12T12:46:40.339Z,280
2017-06-12T12:47:25.763Z,220
2017-06-12T12:48:25.785Z,285
2017-06-12T12:49:25.870Z,270
2017-06-12T12:51:25.871Z,185
2017-06-12T12:52:25.595Z,180
2017-06-12T12:53:40.549Z,185
2017-06-12T12:54:25.686Z,190
2017-06-12T12:55:25.685Z,195
2017-06-12T12:56:25.713Z,200
2017-06-12T12:57:26.049Z,190
2017-06-12T12:58:40.699Z,190
2017-06-12T12:59:55.345Z,170
2017-06-12T13:00:25.226Z,165
2017-06-12T13:01:40.788Z,155
2017-06-12T13:02:40.816Z,150
2017-06-12T13:03:26.226Z,145
2017-06-12T13:04:26.259Z,150
2017-06-12T13:05:26.283Z,155
2017-06-12T13:06:26.315Z,155
2017-06-12T13:07:26.042Z,160
2017-06-12T13:09:40.768Z,170
2017-06-12T13:10:26.432Z,170
2017-06-12T13:11:40.777Z,170
2017-06-12T13:12:26.541Z,170
2017-06-12T13:13:41.143Z,155
2017-06-12T13:14:55.486Z,150
2017-06-12T13:15:41.215Z,145
2017-06-12T13:16:41.232Z,145
2017-06-12T13:17:41.263Z,140
2017-06-12T13:18:26.670Z,130
2017-06-12T13:19:26.695Z,125
2017-06-12T13:20:26.727Z,115
2017-06-12T13:21:26.757Z,115
2017-06-12T13:23:26.818Z,135
2017-06-12T13:24:26.850Z,145
2017-06-12T13:25:26.572Z,165
2017-06-12T13:26:26.296Z,165
2017-06-12T13:27:41.551Z,175
2017-06-12T13:28:41.579Z,170
2017-06-12T13:29:26.690Z,175
2017-06-12T13:30:26.717Z,180
2017-06-12T13:31:41.367Z,180
2017-06-12T13:32:27.080Z,180
2017-06-12T13:33:41.726Z,185
2017-06-12T13:34:27.179Z,180
2017-06-12T13:35:26.865Z,175
2017-06-12T13:36:27.194Z,180
2017-06-12T13:37:41.848Z,210
2017-06-12T13:38:41.877Z,200
2017-06-12T13:39:27.280Z,265
2017-06-12T13:41:27.341Z,285
2017-06-12T13:42:26.762Z,285
2017-06-12T13:43:27.095Z,265
2017-06-12T13:44:27.431Z,275
2017-06-12T13:45:27.454Z,265
2017-06-12T13:46:27.485Z,250
2017-06-12T13:47:27.516Z,235
2017-06-12T13:48:42.167Z,225
2017-06-12T13:49:27.574Z,215
2017-06-12T13:50:27.605Z,210
2017-06-12T13:51:27.333Z,205
2017-06-12T13:53:27.707Z,200
2017-06-12T13:54:27.415Z,195
2017-06-12T13:55:27.750Z,205
2017-06-12T13:56:27.477Z,135
2017-06-12T13:57:27.807Z,130
2017-06-12T13:58:42.455Z,130
2017-06-12T13:59:27.564Z,135
2017-06-12T14:00:57.132Z,145
2017-06-12T14:01:27.922Z,145
2017-06-12T14:02:27.652Z,145
2017-06-12T14:03:27.679Z,140
2017-06-12T14:04:42.630Z,130
2017-06-12T14:05:28.041Z,125
2017-06-12T14:06:27.766Z,120
2017-06-12T14:07:28.096Z,120
2017-06-12T14:09:27.849Z,140
2017-06-12T14:10:27.884Z,160
2017-06-12T14:11:42.835Z,155
2017-06-12T14:12:27.634Z,150
2017-06-12T14:13:27.965Z,145
2017-06-12T14:14:42.917Z,140
2017-06-12T14:15:28.338Z,140
2017-06-12T14:16:42.976Z,140
2017-06-12T14:17:42.698Z,130
2017-06-12T14:18:28.418Z,130
2017-06-12T14:19:28.443Z,125
2017-06-12T14:20:42.785Z,115
2017-06-12T14:21:28.196Z,115
2017-06-12T14:22:28.226Z,110
2017-06-12T14:23:28.270Z,110
2017-06-12T14:24:28.582Z,105
2017-06-12T14:25:57.858Z,100
2017-06-12T14:26:28.644Z,100
2017-06-12T14:27:28.370Z,95
2017-06-12T14:28:28.748Z,95
2017-06-12T14:29:43.374Z,95
2017-06-12T14:30:28.808Z,90
2017-06-12T14:31:28.782Z,95
2017-06-12T14:32:28.515Z,105
2017-06-12T14:33:43.456Z,180
2017-06-12T14:34:28.566Z,165
2017-06-12T14:35:28.946Z,200
2017-06-12T14:36:43.543Z,210
2017-06-12T14:37:28.950Z,215
2017-06-12T14:38:28.678Z,210
2017-06-12T14:39:43.626Z,170
2017-06-12T14:40:29.043Z,205
2017-06-12T14:41:29.149Z,175
2017-06-12T14:42:29.097Z,215
2017-06-12T14:43:29.171Z,210
2017-06-12T14:44:43.771Z,210
2017-06-12T14:45:29.176Z,170
2017-06-12T14:46:29.260Z,140
2017-06-12T14:47:43.550Z,125
2017-06-12T14:48:43.581Z,115